sensor_id;sensor_type;location;lat;lon;timestamp;pressure;altitude;pressure_sealevel;temperature;humidity
70370;BME280;57790;51.356;-2.906;2023-05-19T00:01:37;102873.69;;;17.50;100.00
70370;BME280;57790;51.356;-2.906;2023-05-19T00:04:38;102871.63;;;17.44;100.00
70370;BME280;57790;51.356;-2.906;2023-05-19T00:07:40;102883.34;;;17.43;100.00
70370;BME280;57790;51.356;-2.906;2023-05-19T00:10:43;102881.34;;;17.45;100.00
70370;BME280;57790;51.356;-2.906;2023-05-19T00:13:44;102881.97;;;17.39;100.00
70370;BME280;57790;51.356;-2.906;2023-05-19T00:16:47;102881.28;;;17.37;100.00
70370;BME280;57790;51.356;-2.906;2023-05-19T00:19:48;102882.28;;;17.36;100.00
70370;BME280;57790;51.356;-2.906;2023-05-19T00:22:49;102883.56;;;17.32;100.00
70370;BME280;57790;51.356;-2.906;2023-05-19T00:25:50;102880.44;;;17.37;100.00
70370;BME280;57790;51.356;-2.906;2023-05-19T00:28:53;102878.06;;;17.34;100.00
70370;BME280;57790;51.356;-2.906;2023-05-19T00:31:54;102878.16;;;17.24;100.00
70370;BME280;57790;51.356;-2.906;2023-05-19T00:34:55;102875.47;;;17.24;100.00
70370;BME280;57790;51.356;-2.906;2023-05-19T00:37:55;102874.63;;;17.23;100.00
70370;BME280;57790;51.356;-2.906;2023-05-19T00:40:56;102870.94;;;17.24;100.00
70370;BME280;57790;51.356;-2.906;2023-05-19T00:43:57;102874.53;;;17.15;100.00
70370;BME280;57790;51.356;-2.906;2023-05-19T00:46:57;102865.66;;;17.15;100.00
70370;BME280;57790;51.356;-2.906;2023-05-19T00:49:58;102870.66;;;17.10;100.00
70370;BME280;57790;51.356;-2.906;2023-05-19T00:52:58;102883.06;;;17.11;100.00
70370;BME280;57790;51.356;-2.906;2023-05-19T00:55:59;102876.00;;;17.10;100.00
70370;BME280;57790;51.356;-2.906;2023-05-19T00:59:00;102870.41;;;17.03;100.00
70370;BME280;57790;51.356;-2.906;2023-05-19T01:02:00;102863.03;;;17.05;100.00
70370;BME280;57790;51.356;-2.906;2023-05-19T01:05:02;102863.81;;;16.98;100.00
70370;BME280;57790;51.356;-2.906;2023-05-19T01:08:02;102865.50;;;16.99;100.00
70370;BME280;57790;51.356;-2.906;2023-05-19T01:11:04;102868.34;;;16.97;100.00
70370;BME280;57790;51.356;-2.906;2023-05-19T01:14:05;102876.69;;;16.94;100.00
70370;BME280;57790;51.356;-2.906;2023-05-19T01:17:44;102868.66;;;16.94;100.00
70370;BME280;57790;51.356;-2.906;2023-05-19T01:20:57;102867.25;;;16.90;100.00
70370;BME280;57790;51.356;-2.906;2023-05-19T01:33:32;102873.28;;;16.74;100.00
70370;BME280;57790;51.356;-2.906;2023-05-19T01:36:33;102862.88;;;16.71;100.00
70370;BME280;57790;51.356;-2.906;2023-05-19T01:39:35;102858.50;;;16.70;100.00
70370;BME280;57790;51.356;-2.906;2023-05-19T01:42:37;102861.50;;;16.67;100.00
70370;BME280;57790;51.356;-2.906;2023-05-19T01:45:40;102845.41;;;16.67;100.00
70370;BME280;57790;51.356;-2.906;2023-05-19T01:48:42;102834.97;;;16.64;100.00
70370;BME280;57790;51.356;-2.906;2023-05-19T01:51:43;102836.41;;;16.58;100.00
70370;BME280;57790;51.356;-2.906;2023-05-19T01:54:44;102842.38;;;16.52;100.00
70370;BME280;57790;51.356;-2.906;2023-05-19T02:04:35;102846.59;;;16.55;100.00
70370;BME280;57790;51.356;-2.906;2023-05-19T02:07:45;102842.81;;;16.48;100.00
70370;BME280;57790;51.356;-2.906;2023-05-19T02:11:00;102843.13;;;16.45;100.00
70370;BME280;57790;51.356;-2.906;2023-05-19T02:14:15;102841.28;;;16.45;100.00
70370;BME280;57790;51.356;-2.906;2023-05-19T02:17:19;102837.75;;;16.45;100.00
70370;BME280;57790;51.356;-2.906;2023-05-19T02:20:19;102842.56;;;16.41;100.00
70370;BME280;57790;51.356;-2.906;2023-05-19T02:23:23;102846.41;;;16.39;100.00
70370;BME280;57790;51.356;-2.906;2023-05-19T02:26:24;102847.66;;;16.34;100.00
70370;BME280;57790;51.356;-2.906;2023-05-19T02:29:25;102845.84;;;16.35;100.00
70370;BME280;57790;51.356;-2.906;2023-05-19T02:32:25;102860.34;;;16.32;100.00
70370;BME280;57790;51.356;-2.906;2023-05-19T02:35:26;102848.28;;;16.28;100.00
70370;BME280;57790;51.356;-2.906;2023-05-19T02:38:27;102858.44;;;16.25;100.00
70370;BME280;57790;51.356;-2.906;2023-05-19T02:41:27;102867.03;;;16.19;100.00
70370;BME280;57790;51.356;-2.906;2023-05-19T02:44:27;102860.00;;;16.18;100.00
70370;BME280;57790;51.356;-2.906;2023-05-19T02:47:28;102854.66;;;16.18;100.00
70370;BME280;57790;51.356;-2.906;2023-05-19T02:50:28;102849.59;;;16.15;100.00
70370;BME280;57790;51.356;-2.906;2023-05-19T02:53:30;102840.88;;;16.13;100.00
70370;BME280;57790;51.356;-2.906;2023-05-19T02:56:31;102854.09;;;16.14;100.00
70370;BME280;57790;51.356;-2.906;2023-05-19T02:59:31;102857.38;;;16.08;100.00
70370;BME280;57790;51.356;-2.906;2023-05-19T03:02:31;102857.53;;;16.06;100.00
70370;BME280;57790;51.356;-2.906;2023-05-19T03:05:33;102849.22;;;16.00;100.00
70370;BME280;57790;51.356;-2.906;2023-05-19T03:08:36;102847.53;;;15.99;100.00
70370;BME280;57790;51.356;-2.906;2023-05-19T03:11:37;102839.50;;;15.99;100.00
70370;BME280;57790;51.356;-2.906;2023-05-19T03:14:37;102840.13;;;15.93;100.00
70370;BME280;57790;51.356;-2.906;2023-05-19T03:17:38;102844.63;;;15.92;100.00
70370;BME280;57790;51.356;-2.906;2023-05-19T03:20:38;102832.66;;;15.87;100.00
70370;BME280;57790;51.356;-2.906;2023-05-19T03:23:41;102845.47;;;15.83;100.00
70370;BME280;57790;51.356;-2.906;2023-05-19T03:26:41;102839.28;;;15.83;100.00
70370;BME280;57790;51.356;-2.906;2023-05-19T03:29:42;102836.63;;;15.83;100.00
70370;BME280;57790;51.356;-2.906;2023-05-19T03:32:42;102831.41;;;15.81;100.00
70370;BME280;57790;51.356;-2.906;2023-05-19T03:35:43;102841.81;;;15.74;100.00
70370;BME280;57790;51.356;-2.906;2023-05-19T03:38:43;102838.75;;;15.69;100.00
70370;BME280;57790;51.356;-2.906;2023-05-19T03:41:44;102839.59;;;15.70;100.00
70370;BME280;57790;51.356;-2.906;2023-05-19T03:44:44;102844.69;;;15.63;100.00
70370;BME280;57790;51.356;-2.906;2023-05-19T03:47:45;102845.81;;;15.61;100.00
70370;BME280;57790;51.356;-2.906;2023-05-19T03:50:46;102849.19;;;15.63;100.00
70370;BME280;57790;51.356;-2.906;2023-05-19T03:53:47;102840.72;;;15.58;100.00
70370;BME280;57790;51.356;-2.906;2023-05-19T03:56:48;102847.91;;;15.57;100.00
70370;BME280;57790;51.356;-2.906;2023-05-19T03:59:48;102846.50;;;15.53;100.00
70370;BME280;57790;51.356;-2.906;2023-05-19T04:02:49;102843.41;;;15.48;100.00
70370;BME280;57790;51.356;-2.906;2023-05-19T04:05:51;102848.03;;;15.46;100.00
70370;BME280;57790;51.356;-2.906;2023-05-19T04:08:51;102852.97;;;15.41;100.00
70370;BME280;57790;51.356;-2.906;2023-05-19T04:11:52;102853.41;;;15.36;100.00
70370;BME280;57790;51.356;-2.906;2023-05-19T04:14:52;102861.84;;;15.32;100.00
70370;BME280;57790;51.356;-2.906;2023-05-19T04:17:53;102864.25;;;15.25;100.00
70370;BME280;57790;51.356;-2.906;2023-05-19T04:20:53;102869.72;;;15.24;100.00
70370;BME280;57790;51.356;-2.906;2023-05-19T04:23:54;102872.25;;;15.25;100.00
70370;BME280;57790;51.356;-2.906;2023-05-19T04:26:54;102865.66;;;15.20;100.00
70370;BME280;57790;51.356;-2.906;2023-05-19T04:29:55;102880.25;;;15.15;100.00
70370;BME280;57790;51.356;-2.906;2023-05-19T04:32:55;102886.59;;;15.14;100.00
70370;BME280;57790;51.356;-2.906;2023-05-19T04:35:57;102892.06;;;15.13;100.00
70370;BME280;57790;51.356;-2.906;2023-05-19T04:38:57;102898.56;;;15.10;100.00
70370;BME280;57790;51.356;-2.906;2023-05-19T04:42:06;102894.19;;;15.09;100.00
70370;BME280;57790;51.356;-2.906;2023-05-19T04:45:08;102899.81;;;15.06;100.00
70370;BME280;57790;51.356;-2.906;2023-05-19T04:48:09;102894.72;;;15.03;100.00
70370;BME280;57790;51.356;-2.906;2023-05-19T04:51:09;102885.88;;;15.03;100.00
70370;BME280;57790;51.356;-2.906;2023-05-19T04:54:13;102886.72;;;15.03;100.00
70370;BME280;57790;51.356;-2.906;2023-05-19T04:57:13;102881.38;;;15.03;100.00
70370;BME280;57790;51.356;-2.906;2023-05-19T05:00:14;102875.31;;;15.01;100.00
70370;BME280;57790;51.356;-2.906;2023-05-19T05:03:17;102864.34;;;15.04;100.00
70370;BME280;57790;51.356;-2.906;2023-05-19T05:06:21;102856.34;;;15.04;100.00
70370;BME280;57790;51.356;-2.906;2023-05-19T05:09:22;102860.00;;;15.03;100.00
70370;BME280;57790;51.356;-2.906;2023-05-19T05:12:22;102862.13;;;15.00;100.00
70370;BME280;57790;51.356;-2.906;2023-05-19T05:15:23;102857.91;;;14.97;100.00
70370;BME280;57790;51.356;-2.906;2023-05-19T05:18:24;102858.47;;;15.01;100.00
70370;BME280;57790;51.356;-2.906;2023-05-19T05:21:25;102848.06;;;14.98;100.00
70370;BME280;57790;51.356;-2.906;2023-05-19T05:24:27;102841.88;;;14.97;100.00
70370;BME280;57790;51.356;-2.906;2023-05-19T05:27:28;102833.59;;;14.91;100.00
70370;BME280;57790;51.356;-2.906;2023-05-19T05:30:28;102827.97;;;14.94;100.00
70370;BME280;57790;51.356;-2.906;2023-05-19T05:33:29;102819.78;;;14.85;100.00
70370;BME280;57790;51.356;-2.906;2023-05-19T05:36:29;102815.28;;;14.86;100.00
70370;BME280;57790;51.356;-2.906;2023-05-19T05:39:30;102824.97;;;14.87;100.00
70370;BME280;57790;51.356;-2.906;2023-05-19T05:42:31;102815.16;;;14.87;100.00
70370;BME280;57790;51.356;-2.906;2023-05-19T05:45:31;102830.31;;;14.87;100.00
70370;BME280;57790;51.356;-2.906;2023-05-19T05:48:32;102825.56;;;14.91;100.00
70370;BME280;57790;51.356;-2.906;2023-05-19T05:51:33;102839.78;;;14.91;100.00
70370;BME280;57790;51.356;-2.906;2023-05-19T05:54:33;102843.44;;;14.90;100.00
70370;BME280;57790;51.356;-2.906;2023-05-19T05:57:34;102854.81;;;14.92;100.00
70370;BME280;57790;51.356;-2.906;2023-05-19T06:00:36;102856.22;;;14.96;100.00
70370;BME280;57790;51.356;-2.906;2023-05-19T06:03:39;102857.75;;;14.99;100.00
70370;BME280;57790;51.356;-2.906;2023-05-19T06:06:40;102854.78;;;15.02;100.00
70370;BME280;57790;51.356;-2.906;2023-05-19T06:09:40;102861.16;;;15.10;100.00
70370;BME280;57790;51.356;-2.906;2023-05-19T06:12:41;102866.91;;;15.15;100.00
70370;BME280;57790;51.356;-2.906;2023-05-19T06:15:42;102878.03;;;15.21;100.00
70370;BME280;57790;51.356;-2.906;2023-05-19T06:18:42;102879.44;;;15.25;100.00
70370;BME280;57790;51.356;-2.906;2023-05-19T06:21:43;102872.66;;;15.30;100.00
70370;BME280;57790;51.356;-2.906;2023-05-19T06:24:43;102857.06;;;15.35;100.00
70370;BME280;57790;51.356;-2.906;2023-05-19T06:27:43;102843.97;;;15.42;100.00
70370;BME280;57790;51.356;-2.906;2023-05-19T06:30:44;102835.50;;;15.46;100.00
70370;BME280;57790;51.356;-2.906;2023-05-19T06:33:44;102835.09;;;15.51;100.00
70370;BME280;57790;51.356;-2.906;2023-05-19T06:36:45;102841.84;;;15.55;100.00
70370;BME280;57790;51.356;-2.906;2023-05-19T06:39:45;102844.13;;;15.60;100.00
70370;BME280;57790;51.356;-2.906;2023-05-19T06:42:45;102846.09;;;15.67;100.00
70370;BME280;57790;51.356;-2.906;2023-05-19T06:45:46;102852.69;;;15.73;100.00
70370;BME280;57790;51.356;-2.906;2023-05-19T06:48:46;102850.69;;;15.75;100.00
70370;BME280;57790;51.356;-2.906;2023-05-19T06:51:46;102850.97;;;15.82;100.00
70370;BME280;57790;51.356;-2.906;2023-05-19T06:54:48;102854.19;;;15.85;100.00
70370;BME280;57790;51.356;-2.906;2023-05-19T06:57:49;102842.63;;;15.94;100.00
70370;BME280;57790;51.356;-2.906;2023-05-19T07:00:50;102855.41;;;16.00;100.00
70370;BME280;57790;51.356;-2.906;2023-05-19T07:03:50;102856.94;;;16.03;100.00
70370;BME280;57790;51.356;-2.906;2023-05-19T07:06:50;102865.81;;;16.13;100.00
70370;BME280;57790;51.356;-2.906;2023-05-19T07:09:51;102862.41;;;16.21;100.00
70370;BME280;57790;51.356;-2.906;2023-05-19T07:12:51;102857.84;;;16.31;100.00
70370;BME280;57790;51.356;-2.906;2023-05-19T07:15:52;102860.78;;;16.38;100.00
70370;BME280;57790;51.356;-2.906;2023-05-19T07:18:54;102867.22;;;16.45;100.00
70370;BME280;57790;51.356;-2.906;2023-05-19T07:21:55;102873.94;;;16.49;100.00
70370;BME280;57790;51.356;-2.906;2023-05-19T07:24:56;102876.50;;;16.50;100.00
70370;BME280;57790;51.356;-2.906;2023-05-19T07:27:56;102877.34;;;16.51;100.00
70370;BME280;57790;51.356;-2.906;2023-05-19T07:30:56;102870.69;;;16.55;100.00
70370;BME280;57790;51.356;-2.906;2023-05-19T07:33:57;102870.00;;;16.53;100.00
70370;BME280;57790;51.356;-2.906;2023-05-19T07:36:57;102880.72;;;16.53;100.00
70370;BME280;57790;51.356;-2.906;2023-05-19T07:39:58;102883.25;;;16.54;100.00
70370;BME280;57790;51.356;-2.906;2023-05-19T07:42:58;102882.47;;;16.62;100.00
70370;BME280;57790;51.356;-2.906;2023-05-19T07:45:59;102885.88;;;16.64;100.00
70370;BME280;57790;51.356;-2.906;2023-05-19T07:48:59;102887.13;;;16.70;100.00
70370;BME280;57790;51.356;-2.906;2023-05-19T07:51:59;102888.34;;;16.75;100.00
70370;BME280;57790;51.356;-2.906;2023-05-19T07:55:00;102877.91;;;16.82;100.00
70370;BME280;57790;51.356;-2.906;2023-05-19T07:58:00;102887.78;;;16.81;100.00
70370;BME280;57790;51.356;-2.906;2023-05-19T08:01:01;102879.97;;;16.88;100.00
70370;BME280;57790;51.356;-2.906;2023-05-19T08:04:01;102877.69;;;16.93;100.00
70370;BME280;57790;51.356;-2.906;2023-05-19T08:07:02;102885.84;;;16.91;100.00
70370;BME280;57790;51.356;-2.906;2023-05-19T08:10:03;102883.56;;;16.97;100.00
70370;BME280;57790;51.356;-2.906;2023-05-19T08:13:03;102899.19;;;17.01;100.00
70370;BME280;57790;51.356;-2.906;2023-05-19T08:16:04;102899.88;;;17.03;100.00
70370;BME280;57790;51.356;-2.906;2023-05-19T08:19:05;102900.41;;;17.07;100.00
70370;BME280;57790;51.356;-2.906;2023-05-19T08:22:06;102901.41;;;17.06;100.00
70370;BME280;57790;51.356;-2.906;2023-05-19T08:25:07;102901.13;;;17.09;100.00
70370;BME280;57790;51.356;-2.906;2023-05-19T08:28:08;102899.97;;;17.11;100.00
70370;BME280;57790;51.356;-2.906;2023-05-19T08:31:09;102904.19;;;17.14;100.00
70370;BME280;57790;51.356;-2.906;2023-05-19T08:34:09;102910.91;;;17.18;100.00
70370;BME280;57790;51.356;-2.906;2023-05-19T08:37:10;102908.94;;;17.20;100.00
70370;BME280;57790;51.356;-2.906;2023-05-19T08:40:15;102919.38;;;17.23;100.00
70370;BME280;57790;51.356;-2.906;2023-05-19T08:43:15;102903.81;;;17.27;100.00
70370;BME280;57790;51.356;-2.906;2023-05-19T08:46:16;102904.50;;;17.29;100.00
70370;BME280;57790;51.356;-2.906;2023-05-19T08:49:22;102907.69;;;17.32;100.00
70370;BME280;57790;51.356;-2.906;2023-05-19T08:53:00;102900.34;;;17.34;100.00
70370;BME280;57790;51.356;-2.906;2023-05-19T08:56:07;102901.59;;;17.40;100.00
70370;BME280;57790;51.356;-2.906;2023-05-19T08:59:12;102896.59;;;17.45;100.00
70370;BME280;57790;51.356;-2.906;2023-05-19T09:02:12;102889.38;;;17.45;100.00
70370;BME280;57790;51.356;-2.906;2023-05-19T09:05:15;102882.03;;;17.47;100.00
70370;BME280;57790;51.356;-2.906;2023-05-19T09:08:15;102876.38;;;17.50;100.00
70370;BME280;57790;51.356;-2.906;2023-05-19T09:11:17;102871.53;;;17.54;100.00
70370;BME280;57790;51.356;-2.906;2023-05-19T09:14:18;102867.00;;;17.54;100.00
70370;BME280;57790;51.356;-2.906;2023-05-19T09:17:18;102879.94;;;17.59;100.00
70370;BME280;57790;51.356;-2.906;2023-05-19T09:20:18;102865.38;;;17.62;100.00
70370;BME280;57790;51.356;-2.906;2023-05-19T09:23:19;102865.78;;;17.67;100.00
70370;BME280;57790;51.356;-2.906;2023-05-19T09:26:20;102869.53;;;17.74;100.00
70370;BME280;57790;51.356;-2.906;2023-05-19T09:29:22;102869.69;;;17.72;100.00
70370;BME280;57790;51.356;-2.906;2023-05-19T09:32:24;102866.84;;;17.74;100.00
70370;BME280;57790;51.356;-2.906;2023-05-19T09:35:25;102864.69;;;17.77;100.00
70370;BME280;57790;51.356;-2.906;2023-05-19T09:38:26;102866.06;;;17.81;100.00
70370;BME280;57790;51.356;-2.906;2023-05-19T09:41:26;102862.06;;;17.86;100.00
70370;BME280;57790;51.356;-2.906;2023-05-19T09:44:27;102857.38;;;17.88;100.00
70370;BME280;57790;51.356;-2.906;2023-05-19T09:47:33;102857.88;;;17.91;100.00
70370;BME280;57790;51.356;-2.906;2023-05-19T09:50:34;102850.69;;;17.92;100.00
70370;BME280;57790;51.356;-2.906;2023-05-19T09:53:35;102851.91;;;17.97;100.00
70370;BME280;57790;51.356;-2.906;2023-05-19T09:56:35;102848.91;;;18.00;100.00
70370;BME280;57790;51.356;-2.906;2023-05-19T09:59:38;102846.22;;;18.00;100.00
70370;BME280;57790;51.356;-2.906;2023-05-19T10:02:41;102851.94;;;18.05;100.00
70370;BME280;57790;51.356;-2.906;2023-05-19T10:05:43;102849.94;;;18.07;100.00
70370;BME280;57790;51.356;-2.906;2023-05-19T10:08:44;102851.47;;;18.10;100.00
70370;BME280;57790;51.356;-2.906;2023-05-19T10:11:45;102852.66;;;18.16;100.00
70370;BME280;57790;51.356;-2.906;2023-05-19T10:14:46;102851.34;;;18.20;100.00
70370;BME280;57790;51.356;-2.906;2023-05-19T10:17:48;102856.53;;;18.21;100.00
70370;BME280;57790;51.356;-2.906;2023-05-19T10:20:50;102853.56;;;18.24;100.00
70370;BME280;57790;51.356;-2.906;2023-05-19T10:23:51;102854.22;;;18.26;100.00
70370;BME280;57790;51.356;-2.906;2023-05-19T10:27:00;102844.69;;;18.32;100.00
70370;BME280;57790;51.356;-2.906;2023-05-19T10:30:17;102837.13;;;18.35;100.00
70370;BME280;57790;51.356;-2.906;2023-05-19T10:33:19;102827.94;;;18.38;100.00
70370;BME280;57790;51.356;-2.906;2023-05-19T10:39:42;102821.22;;;18.42;100.00
70370;BME280;57790;51.356;-2.906;2023-05-19T10:45:52;102815.34;;;18.47;100.00
70370;BME280;57790;51.356;-2.906;2023-05-19T10:48:52;102814.19;;;18.49;100.00
70370;BME280;57790;51.356;-2.906;2023-05-19T10:51:56;102809.47;;;18.51;100.00
70370;BME280;57790;51.356;-2.906;2023-05-19T10:54:56;102798.44;;;18.54;100.00
70370;BME280;57790;51.356;-2.906;2023-05-19T10:57:57;102798.78;;;18.59;100.00
70370;BME280;57790;51.356;-2.906;2023-05-19T11:01:00;102792.75;;;18.65;100.00
70370;BME280;57790;51.356;-2.906;2023-05-19T11:04:08;102794.63;;;18.73;100.00
70370;BME280;57790;51.356;-2.906;2023-05-19T11:07:20;102789.59;;;18.78;100.00
70370;BME280;57790;51.356;-2.906;2023-05-19T11:10:22;102797.84;;;18.85;100.00
70370;BME280;57790;51.356;-2.906;2023-05-19T11:13:26;102795.47;;;18.90;100.00
70370;BME280;57790;51.356;-2.906;2023-05-19T11:16:33;102794.31;;;19.00;100.00
70370;BME280;57790;51.356;-2.906;2023-05-19T11:19:34;102795.16;;;19.09;100.00
70370;BME280;57790;51.356;-2.906;2023-05-19T11:22:34;102800.72;;;19.16;100.00
70370;BME280;57790;51.356;-2.906;2023-05-19T11:25:50;102805.56;;;19.20;100.00
70370;BME280;57790;51.356;-2.906;2023-05-19T11:28:51;102806.78;;;19.26;100.00
70370;BME280;57790;51.356;-2.906;2023-05-19T11:31:51;102809.44;;;19.34;100.00
70370;BME280;57790;51.356;-2.906;2023-05-19T11:34:54;102800.19;;;19.45;100.00
70370;BME280;57790;51.356;-2.906;2023-05-19T11:37:55;102804.69;;;19.52;100.00
70370;BME280;57790;51.356;-2.906;2023-05-19T11:40:56;102800.34;;;19.59;100.00
70370;BME280;57790;51.356;-2.906;2023-05-19T11:43:56;102791.59;;;19.66;100.00
70370;BME280;57790;51.356;-2.906;2023-05-19T11:47:00;102794.94;;;19.76;100.00
70370;BME280;57790;51.356;-2.906;2023-05-19T11:50:01;102795.94;;;19.83;100.00
70370;BME280;57790;51.356;-2.906;2023-05-19T11:53:01;102788.66;;;19.91;100.00
70370;BME280;57790;51.356;-2.906;2023-05-19T11:56:02;102793.38;;;19.98;100.00
70370;BME280;57790;51.356;-2.906;2023-05-19T11:59:03;102793.13;;;20.07;100.00
70370;BME280;57790;51.356;-2.906;2023-05-19T12:02:18;102792.44;;;20.13;100.00
70370;BME280;57790;51.356;-2.906;2023-05-19T12:05:24;102785.81;;;20.24;100.00
70370;BME280;57790;51.356;-2.906;2023-05-19T12:08:25;102795.38;;;20.35;100.00
70370;BME280;57790;51.356;-2.906;2023-05-19T12:11:27;102794.53;;;20.42;100.00
70370;BME280;57790;51.356;-2.906;2023-05-19T12:14:29;102791.78;;;20.50;100.00
70370;BME280;57790;51.356;-2.906;2023-05-19T12:17:31;102799.81;;;20.59;100.00
70370;BME280;57790;51.356;-2.906;2023-05-19T12:20:32;102788.78;;;20.68;100.00
70370;BME280;57790;51.356;-2.906;2023-05-19T12:23:34;102787.06;;;20.75;100.00
70370;BME280;57790;51.356;-2.906;2023-05-19T12:26:35;102791.06;;;20.79;100.00
70370;BME280;57790;51.356;-2.906;2023-05-19T12:29:37;102787.97;;;20.91;100.00
70370;BME280;57790;51.356;-2.906;2023-05-19T12:32:37;102784.38;;;20.98;100.00
70370;BME280;57790;51.356;-2.906;2023-05-19T12:35:38;102784.47;;;21.05;100.00
70370;BME280;57790;51.356;-2.906;2023-05-19T12:38:38;102774.66;;;21.12;100.00
70370;BME280;57790;51.356;-2.906;2023-05-19T12:41:43;102772.22;;;21.17;100.00
70370;BME280;57790;51.356;-2.906;2023-05-19T12:44:46;102776.03;;;21.23;100.00
70370;BME280;57790;51.356;-2.906;2023-05-19T12:47:47;102779.00;;;21.36;100.00
70370;BME280;57790;51.356;-2.906;2023-05-19T12:50:50;102773.16;;;21.47;100.00
70370;BME280;57790;51.356;-2.906;2023-05-19T12:53:51;102772.41;;;21.53;100.00
70370;BME280;57790;51.356;-2.906;2023-05-19T12:56:52;102772.13;;;21.63;100.00
70370;BME280;57790;51.356;-2.906;2023-05-19T12:59:52;102774.75;;;21.71;100.00
70370;BME280;57790;51.356;-2.906;2023-05-19T13:05:56;102770.44;;;21.91;100.00
70370;BME280;57790;51.356;-2.906;2023-05-19T13:08:58;102767.47;;;22.01;100.00
70370;BME280;57790;51.356;-2.906;2023-05-19T13:11:59;102766.53;;;22.09;100.00
70370;BME280;57790;51.356;-2.906;2023-05-19T13:14:59;102761.78;;;22.11;100.00
70370;BME280;57790;51.356;-2.906;2023-05-19T13:18:01;102764.59;;;22.17;100.00
70370;BME280;57790;51.356;-2.906;2023-05-19T13:21:02;102757.97;;;22.20;100.00
70370;BME280;57790;51.356;-2.906;2023-05-19T13:24:03;102762.41;;;22.27;100.00
70370;BME280;57790;51.356;-2.906;2023-05-19T13:27:04;102764.81;;;22.37;100.00
70370;BME280;57790;51.356;-2.906;2023-05-19T13:30:06;102763.66;;;22.46;100.00
70370;BME280;57790;51.356;-2.906;2023-05-19T13:33:07;102751.44;;;22.50;100.00
70370;BME280;57790;51.356;-2.906;2023-05-19T13:36:07;102760.47;;;22.58;100.00
70370;BME280;57790;51.356;-2.906;2023-05-19T13:39:07;102753.88;;;22.67;100.00
70370;BME280;57790;51.356;-2.906;2023-05-19T13:42:08;102755.56;;;22.68;100.00
70370;BME280;57790;51.356;-2.906;2023-05-19T13:45:08;102753.31;;;22.71;100.00
70370;BME280;57790;51.356;-2.906;2023-05-19T13:48:09;102750.22;;;22.74;100.00
70370;BME280;57790;51.356;-2.906;2023-05-19T13:51:10;102747.75;;;22.79;100.00
70370;BME280;57790;51.356;-2.906;2023-05-19T13:54:11;102753.28;;;22.86;100.00
70370;BME280;57790;51.356;-2.906;2023-05-19T13:57:11;102746.44;;;22.90;100.00
70370;BME280;57790;51.356;-2.906;2023-05-19T14:00:12;102742.94;;;22.96;100.00
70370;BME280;57790;51.356;-2.906;2023-05-19T14:03:12;102745.09;;;23.01;100.00
70370;BME280;57790;51.356;-2.906;2023-05-19T14:06:15;102733.47;;;23.07;100.00
70370;BME280;57790;51.356;-2.906;2023-05-19T14:09:15;102737.63;;;23.09;100.00
70370;BME280;57790;51.356;-2.906;2023-05-19T14:12:15;102732.66;;;23.13;100.00
70370;BME280;57790;51.356;-2.906;2023-05-19T14:15:16;102726.03;;;23.15;100.00
70370;BME280;57790;51.356;-2.906;2023-05-19T14:18:16;102727.75;;;23.23;100.00
70370;BME280;57790;51.356;-2.906;2023-05-19T14:21:17;102722.78;;;23.27;100.00
70370;BME280;57790;51.356;-2.906;2023-05-19T14:24:17;102713.66;;;23.34;100.00
70370;BME280;57790;51.356;-2.906;2023-05-19T14:27:19;102718.69;;;23.37;100.00
70370;BME280;57790;51.356;-2.906;2023-05-19T14:30:19;102723.31;;;23.43;100.00
70370;BME280;57790;51.356;-2.906;2023-05-19T14:33:20;102722.31;;;23.51;100.00
70370;BME280;57790;51.356;-2.906;2023-05-19T14:36:21;102721.34;;;23.59;100.00
70370;BME280;57790;51.356;-2.906;2023-05-19T14:39:21;102721.78;;;23.62;100.00
70370;BME280;57790;51.356;-2.906;2023-05-19T14:42:21;102716.38;;;23.69;100.00
70370;BME280;57790;51.356;-2.906;2023-05-19T14:45:22;102710.38;;;23.73;100.00
70370;BME280;57790;51.356;-2.906;2023-05-19T14:48:22;102716.84;;;23.79;100.00
70370;BME280;57790;51.356;-2.906;2023-05-19T14:51:23;102709.97;;;23.83;100.00
70370;BME280;57790;51.356;-2.906;2023-05-19T14:54:23;102715.44;;;23.90;100.00
70370;BME280;57790;51.356;-2.906;2023-05-19T14:57:23;102712.97;;;23.95;100.00
70370;BME280;57790;51.356;-2.906;2023-05-19T15:00:24;102714.66;;;24.02;100.00
70370;BME280;57790;51.356;-2.906;2023-05-19T15:03:27;102706.94;;;24.06;100.00
70370;BME280;57790;51.356;-2.906;2023-05-19T15:06:27;102703.41;;;24.12;100.00
70370;BME280;57790;51.356;-2.906;2023-05-19T15:09:28;102699.28;;;24.23;100.00
70370;BME280;57790;51.356;-2.906;2023-05-19T15:12:29;102712.00;;;24.29;100.00
70370;BME280;57790;51.356;-2.906;2023-05-19T15:15:29;102712.47;;;24.32;100.00
70370;BME280;57790;51.356;-2.906;2023-05-19T15:18:30;102710.19;;;24.36;100.00
70370;BME280;57790;51.356;-2.906;2023-05-19T15:21:30;102710.81;;;24.38;100.00
70370;BME280;57790;51.356;-2.906;2023-05-19T15:24:30;102697.25;;;24.38;100.00
70370;BME280;57790;51.356;-2.906;2023-05-19T15:27:33;102713.72;;;24.43;100.00
70370;BME280;57790;51.356;-2.906;2023-05-19T15:30:34;102709.78;;;24.32;100.00
70370;BME280;57790;51.356;-2.906;2023-05-19T15:33:34;102703.66;;;24.24;100.00
70370;BME280;57790;51.356;-2.906;2023-05-19T15:36:35;102711.16;;;24.22;100.00
70370;BME280;57790;51.356;-2.906;2023-05-19T15:39:35;102715.34;;;24.18;100.00
70370;BME280;57790;51.356;-2.906;2023-05-19T15:42:35;102711.97;;;24.16;100.00
70370;BME280;57790;51.356;-2.906;2023-05-19T15:45:36;102723.25;;;24.19;100.00
70370;BME280;57790;51.356;-2.906;2023-05-19T15:48:36;102704.28;;;24.19;100.00
70370;BME280;57790;51.356;-2.906;2023-05-19T15:51:37;102704.91;;;24.21;100.00